Airfield :
LOGIN :

Register | Disclaimer

   EN    FR    IT 

 










Legend :    VFR   Marginal VFR   IFR   Intensive IFR   Very Intensive IFR
Visi :
Ceiling :
>= 8 km
>= 3000ft
5 to 8 km
1000 to 3000 ft
1500m to 5 km
500 to 1000 ft
800 to 1500m
200 to 500 ft
< 800m
< 200 ft
Symbols :   Thunderstorms  Fog  Heavy snow  Heavy precipitations  Wind > 20 kt
SIGMETs :     Misc.  Thunderstorms  Icing  Turbulence  Mountain Waves  Volcanic Ashes






- Airport Elevation : 80 ft
- IATA code : LPL


EGGP - Liverpool John Lennon

CURRENT METAR :
  • 252220Z 17010KT 9999 OVC007 07/07 Q1011

EXPIRED METARs :
  • 252150Z 17009KT 130V200 9999 OVC007 07/07 Q1011
  • 252120Z 16008KT 9999 OVC008 07/07 Q1011
  • 252050Z 17006KT 9999 OVC009 07/07 Q1012
  • 252020Z 17006KT 9999 FEW009 BKN018 07/06 Q1012
  • 251950Z 16008KT 9999 FEW010 SCT018 OVC041 07/07 Q1012

TAF AMD TAF EGGP
Valid from the 25 at 21:00 until the 26 at 18:00 UTC


252104Z 2521/2618 20006KT 9999 BKN010
TEMPO 2521/2524 3000 -DZ BR BKN006
PROB30
TEMPO 2521/2524 1200 DZ BKN003
BECMG 2600/2603 SCT025
TEMPO 2609/2613 18015G25KT 7000 RA BKN012
BECMG 2610/2612 26010KT
BECMG 2615/2618 VRB03KT
ATIS : +44 151 907 2000 (option 5 or ext 5150)
Met : +44 871 750 5150



MET'MAP, your aeronautical weather chart ! - Copyright ORBIFLY December 2007 - Disclaimer

ORBIFLY MET'MAP TEAM :

Programming & Development : Alexandra Zaïnal
Concept & original design : Baudouin d'Aumeries
Assistance for programming : Marc-Olivier Méhu
Technical & hardware support : Manuel Goepfert

Contact : metmap@orbifly.com




SOURCES & CREDITS :

   NOAA